Airfield :
LOGIN :

Register | Disclaimer

   EN    FR    IT 

 










Legend :    VFR   Marginal VFR   IFR   Intensive IFR   Very Intensive IFR
Visi :
Ceiling :
>= 8 km
>= 3000ft
5 to 8 km
1000 to 3000 ft
1500m to 5 km
500 to 1000 ft
800 to 1500m
200 to 500 ft
< 800m
< 200 ft
Symbols :   Thunderstorms  Fog  Heavy snow  Heavy precipitations  Wind > 20 kt
SIGMETs :     Misc.  Thunderstorms  Icing  Turbulence  Mountain Waves  Volcanic Ashes






- Airport Elevation : 1249 ft


ETSN - Neuburg AB

CURRENT METAR :
  • 291020Z 06002KT 8000 OVC022 06/03 Q1016 WHT WHT TEMPO BLU

EXPIRED METARs :
  • 290920Z 04003KT 8000 BKN023 05/03 Q1016 WHT
  • 290820Z 06002KT 8000 BKN025 03/02 Q1017 BLU
  • 290720Z 08001KT 5000 BR BKN027 01/01 Q1017 WHT
  • 290620Z 02002KT 4000 MIFG BR FEW020 00/M00 Q1018 GRN
  • 290603Z 04002KT 4000 MIFG BR FEW020 00/M00 Q1018 GRN

TAF TAF ETSN
Valid from the 29 at 09:00 until the 29 at 18:00 UTC


290820Z 2909/2918 09005KT 6000 NSW BKN020
TEMPO 2909/2918 06005KT 8000 NSW BKN025



MET'MAP, your aeronautical weather chart ! - Copyright ORBIFLY December 2007 - Disclaimer

ORBIFLY MET'MAP TEAM :

Programming & Development : Alexandra Zaïnal
Original concept : Baudouin d'Aumeries
Technical & hardware support : Manuel Goepfert
Assistance : Marc-Olivier Méhu




SOURCES & CREDITS :

   NOAA